METAR Data
IDs: Format: Raw Decoded Include TAF

Data at: 0814 UTC 09 Apr 2020

KEDW 090758Z AUTO 00000KT 10SM -DZ FEW033 SCT060 07/04 A3005 RMK AO2 RAB20E33DZB33E34RAB34E42DZB42 SLP179 P0001 T00670044 401020060
KEDW 090735Z AUTO 00000KT 10SM -RA FEW022 SCT036 07/05 A3004 RMK AO2 RAB20E33DZB33E34RAB34 SLP176
KEDW 090720Z AUTO 00000KT 10SM -RA FEW022 BKN036 OVC048 07/05 A3004 RMK AO2 RAB20 SLP176
KEDW 090658Z AUTO 00000KT 10SM FEW040 BKN055 OVC080 07/05 A3004 RMK AO2 SLP176 T00700048
KEDW 090558Z AUTO 26009KT 10SM FEW060 OVC085 07/04 A3003 RMK AO2 SLP172 60000 T00700040 10099 20069 51015
KEDW 090543Z AUTO 25007KT 10SM BKN085 07/05 A3003 RMK AO2 SLP172
KEDW 090458Z AUTO 26009KT 10SM SCT055 07/05 A3003 RMK AO2 RAE01RAB05E07 SLP172 P0000 T00720052
KEDW 090407Z AUTO 26011KT 10SM CLR 07/06 A3002 RMK AO2 RAE01RAB05E07 SLP169
KEDW 090405Z AUTO 27011KT 10SM -RA FEW027 FEW034 07/06 A3002 RMK AO2 RAE01RAB05 SLP169
KEDW 090401Z AUTO 26013KT 10SM CLR 07/06 A3001 RMK AO2 RAE01 SLP165
KEDW 090358Z AUTO 26011KT 10SM -RA FEW028 FEW036 07/05 A3001 RMK AO2 DZB01E24RAB24 SLP165 P0000 T00730054
KEDW 090301Z AUTO 27012KT 10SM -DZ SCT044 08/05 A2998 RMK AO2 DZB01 SLP153
KEDW 090258Z AUTO 27011KT 10SM SCT045 SCT050 08/05 A2998 RMK AO2 DZB45E52 SLP153 P0000 60000 T00810052 53011
KEDW 090252Z AUTO 27009KT 10SM SCT045 SCT050 08/06 A2998 RMK AO2 DZB45E52 SLP153
KEDW 090245Z AUTO 29007KT 10SM -DZ SCT045 BKN050 08/07 A2998 RMK AO2 DZB45 SLP153
KEDW 090243Z AUTO 29007KT 10SM SCT045 BKN050 08/07 A2998 RMK AO2 SLP153
KEDW 090158Z AUTO 27007KT 10SM SCT060 09/05 A2997 RMK AO2 SLP150 T00890053
KEDW 090058Z 25014KT 30SM SCT040 OVC095 10/05 A2994 RMK AO2A SLP138 T00950045
KEDW 090028Z 25016KT 40SM FEW060 BKN100 10/04 A2994 RMK AO2A SLP138
KEDW 090013Z 26013KT 40SM SCT060 SCT100 10/04 A2994 RMK AO2A LTG DSNT S SLP138
KEDW 082358Z 25013KT 40SM BKN060 OVC100 10/04 A2994 RMK AO2A SLP138 60008 T00970041 10102 20061 55004
KEDW 082338Z COR 24013KT 40SM FEW050 SCT060 BKN100 10/06 A2994 RMK AO2A SLP138 COR 2340
KEDW 082328Z COR 24013KT 10SM FEW050 SCT060 BKN100 10/06 A2994 RMK AO2A SLP138 COR 2340
KEDW 082313Z COR 25010KT 40SM FEW025 SCT065 BKN100 OVC200 10/06 A2994 RMK AO2A SLP138 COR 2339
KEDW 082258Z 25011KT 40SM FEW025 SCT065 BKN100 OVC200 10/05 A2993 RMK AO2A SLP135 SHRA DSNT E-SE T01000052
KEDW 082158Z 24012KT 40SM FEW025 BKN065 OVC200 10/05 A2994 RMK AO2A SLP138 T00950053
KEDW 082116Z 24010KT 30SM SCT025 BKN065 OVC200 09/06 A2996 RMK AO2A
KEDW 082113Z AUTO 25009KT 10SM BKN065 09/06 A2996 RMK AO2 SLP145
KEDW 082058Z 27006KT 30SM BKN025 OVC035 08/06 A2996 RMK AO2A SLP147 P0000 60003 T00840060 58002

TAF AMD KEDW 082225Z 0822/1003 25012G18KT 9000 -SHRA SCT035 BKN050 610505 510009 QNH2990INS
  BECMG 0822/0823 25012G18KT 8000 -SHRA SCT035 OVC050 610506 510009 QNH2992INS
  BECMG 0907/0908 VRB06KT 9000 -SHRA SCT020 OVC030 610606 QNH2992INS
  BECMG 0914/0915 21010G15KT 9999 NSW SCT035 SCT060 BKN120 610606 QNH3002INS
  BECMG 0920/0921 32010G15KT 9000 -SHRA SCT040 BKN060 BKN120 QNH3005INS TX09/0822Z TN03/0913Z LAST NO AMDS AFT 0822 NEXT 0913


K9L2 090758Z AUTO 00000KT 10SM -RA FEW050 M A3006 RMK AO2 RAB09 SLPNO P0000 FZRANO $
K9L2 090724Z AUTO 14004KT 9SM -RA SCT033 M A3005 RMK AO2 RAB09 SLPNO $
K9L2 090709Z AUTO 00000KT 9SM -RA SCT033 BKN055 BKN075 M A3006 RMK AO2 RAB09 SLPNO FZRANO $
K9L2 090658Z AUTO 26007KT 10SM BKN055 BKN075 M A3005 RMK AO2 SLPNO FZRANO $
K9L2 090628Z AUTO 26005KT 10SM FEW050 SCT065 M A3005 RMK AO2 SLPNO $
K9L2 090613Z AUTO 25007KT 10SM BKN060 BKN070 M A3005 RMK AO2 SLPNO $
K9L2 090558Z AUTO 24008KT 10SM FEW070 M A3005 RMK AO2 SLPNO 60001 51015 FZRANO $
K9L2 090513Z AUTO 24006KT 10SM SCT047 M A3004 RMK AO2 SLPNO $
K9L2 090458Z AUTO 24007KT 10SM SCT039 BKN048 M A3004 RMK AO2 RAE32 SLPNO P0000 FZRANO $
K9L2 090447Z AUTO 23007KT 10SM SCT035 M A3004 RMK AO2 RAE32 SLPNO $
K9L2 090432Z AUTO 23005KT 10SM OVC034 M A3004 RMK AO2 RAE32 SLPNO FZRANO $
K9L2 090413Z AUTO 24009KT 8SM -RA BKN032 M A3004 RMK AO2 SLPNO $
K9L2 090358Z AUTO 25010KT 9SM -RA FEW021 M A3003 RMK AO2 RAB04 SLPNO P0001 FZRANO $
K9L2 090349Z AUTO 25009KT 9SM -RA FEW024 M A3003 RMK AO2 RAB04 SLPNO $
K9L2 090319Z AUTO 25010KT 8SM -RA BKN021 M A3001 RMK AO2 RAB04 BKN V SCT SLPNO FZRANO $
K9L2 090304Z AUTO 25011KT 8SM -RA FEW014 M A3001 RMK AO2 RAB04 SLPNO $
K9L2 090258Z AUTO 25009KT 9SM CLR M A3000 RMK AO2 RAB35E38 SLPNO P0000 60000 53012 FZRANO $
K9L2 090238Z AUTO 27007KT 9SM CLR M A2999 RMK AO2 RAB35E38 SLPNO FZRANO $
K9L2 090235Z AUTO 28006KT 9SM -RA FEW032 M A2999 RMK AO2 RAB35 SLPNO FZRANO $
K9L2 090158Z AUTO 27004KT 10SM FEW050 M A2998 RMK AO2 SLPNO FZRANO $
K9L2 090128Z AUTO 29007KT 10SM FEW048 SCT095 M A2997 RMK AO2 SLPNO $
K9L2 090058Z AUTO 23010KT 10SM FEW085 BKN100 M A2996 RMK AO2 SLPNO FZRANO $
K9L2 082358Z AUTO 23009KT 10SM FEW028 SCT037 SCT350 M A2996 RMK AO2 RAE00RAB36E47 SLPNO P0000 60006 55003 FZRANO $
K9L2 082347Z AUTO 23008KT 9SM SCT029 SCT036 BKN350 M A2996 RMK AO2 RAE00RAB36E47 SLPNO FZRANO $
K9L2 082336Z AUTO 22010G17KT 9SM -RA SCT029 BKN037 M A2996 RMK AO2 RAE00RAB36 SLPNO FZRANO $
K9L2 082330Z AUTO 22009KT 10SM BKN033 M A2996 RMK AO2 RAE00 SLPNO $
K9L2 082300Z AUTO 23010KT 9SM FEW290 M A2995 RMK AO2 LTG DSNT NE RAE00 SLPNO FZRANO $
K9L2 082258Z AUTO 24008KT 9SM -RA FEW028 M A2995 RMK AO2 LTG DSNT NE RAB51 SLPNO P0000 FZRANO $
K9L2 082251Z AUTO 23008KT 9SM -RA FEW028 SCT330 M A2995 RMK AO2 LTG DSNT NE RAB51 SLPNO FZRANO $
K9L2 082158Z AUTO 24010KT 10SM FEW290 M A2996 RMK AO2 LTG DSNT NE SLPNO FZRANO $
K9L2 082128Z AUTO 23010KT 10SM FEW045 M A2996 RMK AO2 SLPNO $
K9L2 082058Z AUTO 25008KT 9SM SCT025 BKN040 M A2997 RMK AO2 RAE19 SLPNO P0001 60006 58002 FZRANO $
K9L2 082034Z AUTO 25009KT 7SM FEW028 SCT250 M A2998 RMK AO2 RAE19 SLPNO $
K9L2 082019Z AUTO 23007KT 7SM BKN029 BKN038 BKN250 OVC350 M A2998 RMK AO2 RAE19 SLPNO FZRANO $
No TAF found for K9L2